createdAt,value
2023-02-23T00:01:50.355Z,25.43
2023-02-23T00:04:21.122Z,27.00
2023-02-23T00:06:52.386Z,26.00
2023-02-23T00:09:25.688Z,26.57
2023-02-23T00:12:00.337Z,25.83
2023-02-23T00:14:31.989Z,27.70
2023-02-23T00:17:02.542Z,27.60
2023-02-23T00:19:33.675Z,26.90
2023-02-23T00:22:03.650Z,27.77
2023-02-23T00:24:33.688Z,28.00
2023-02-23T00:27:07.130Z,27.70
2023-02-23T00:29:40.733Z,28.50
2023-02-23T00:32:11.398Z,28.60
2023-02-23T00:34:41.990Z,28.70
2023-02-23T00:37:12.483Z,28.47
2023-02-23T00:39:42.392Z,30.47
2023-02-23T00:42:15.714Z,30.53
2023-02-23T00:44:47.728Z,32.17
2023-02-23T00:47:17.852Z,32.43
2023-02-23T00:49:47.984Z,33.57
2023-02-23T00:52:18.027Z,34.03
2023-02-23T00:54:48.106Z,32.97
2023-02-23T00:57:20.700Z,31.53
2023-02-23T00:59:50.654Z,33.67
2023-02-23T01:02:20.600Z,34.20
2023-02-23T01:04:50.974Z,33.97
2023-02-23T01:07:21.053Z,31.90
2023-02-23T01:09:51.254Z,31.47
2023-02-23T01:12:23.886Z,31.07
2023-02-23T01:14:54.139Z,31.37
2023-02-23T01:17:24.218Z,32.37
2023-02-23T01:19:55.464Z,31.03
2023-02-23T01:22:25.418Z,30.73
2023-02-23T01:24:55.472Z,30.73
2023-02-23T01:27:29.464Z,31.50
2023-02-23T01:29:59.479Z,30.87
2023-02-23T01:32:29.558Z,32.33
2023-02-23T01:34:59.555Z,31.30
2023-02-23T01:37:29.557Z,31.90
2023-02-23T01:39:59.504Z,30.13
2023-02-23T01:42:32.138Z,30.37
2023-02-23T01:45:35.166Z,31.00
2023-02-23T01:48:12.649Z,31.73
2023-02-23T01:50:48.820Z,32.23
2023-02-23T01:53:21.719Z,30.70
2023-02-23T01:55:55.247Z,30.57
2023-02-23T01:58:30.066Z,30.43
2023-02-23T02:01:03.806Z,31.53
2023-02-23T02:03:38.358Z,30.73
2023-02-23T02:06:11.744Z,31.40
2023-02-23T02:08:45.649Z,32.67
2023-02-23T02:11:26.395Z,32.13
2023-02-23T02:14:03.521Z,31.77
2023-02-23T02:16:45.817Z,31.57
2023-02-23T02:19:58.775Z,32.63
2023-02-23T02:23:16.352Z,31.67
2023-02-23T02:26:05.589Z,31.87
2023-02-23T02:29:09.515Z,32.47
2023-02-23T02:32:15.120Z,30.53
2023-02-23T02:35:14.096Z,31.37
2023-02-23T02:38:01.987Z,31.43
2023-02-23T02:40:40.369Z,29.57
2023-02-23T02:43:24.501Z,32.33
2023-02-23T02:45:58.785Z,31.10
2023-02-23T02:48:42.380Z,31.07
2023-02-23T02:51:21.488Z,31.67
2023-02-23T02:54:09.472Z,33.63
2023-02-23T02:56:42.114Z,33.13
2023-02-23T02:59:28.832Z,31.27
2023-02-23T03:02:12.245Z,29.60
2023-02-23T03:04:54.800Z,32.23
2023-02-23T03:07:46.691Z,31.63
2023-02-23T03:10:43.745Z,32.47
2023-02-23T03:13:34.506Z,31.30
2023-02-23T03:16:27.770Z,33.37
2023-02-23T03:19:26.754Z,32.23
2023-02-23T03:22:15.872Z,33.23
2023-02-23T03:25:06.314Z,33.03
2023-02-23T03:28:01.441Z,34.30
2023-02-23T03:30:52.846Z,32.03
2023-02-23T03:33:45.649Z,33.20
2023-02-23T03:36:32.416Z,34.33
2023-02-23T03:39:20.259Z,33.63
2023-02-23T03:42:04.477Z,32.90
2023-02-23T03:44:55.440Z,33.50
2023-02-23T03:47:44.913Z,33.30
2023-02-23T03:50:33.457Z,34.33
2023-02-23T03:53:18.460Z,31.67
2023-02-23T03:56:06.411Z,31.97
2023-02-23T03:58:54.022Z,32.43
2023-02-23T04:01:42.447Z,34.83
2023-02-23T04:04:26.424Z,33.97
2023-02-23T04:07:11.484Z,31.80
2023-02-23T04:09:54.028Z,32.97
2023-02-23T04:12:45.486Z,32.93
2023-02-23T04:15:20.947Z,34.37
2023-02-23T04:17:55.670Z,34.53
2023-02-23T04:20:28.184Z,34.90
2023-02-23T04:22:58.459Z,34.13
2023-02-23T04:25:28.826Z,35.27
2023-02-23T04:27:59.165Z,36.37
2023-02-23T04:30:29.809Z,34.53
2023-02-23T04:33:02.724Z,35.10
2023-02-23T04:35:33.340Z,32.87
2023-02-23T04:38:05.339Z,34.80
2023-02-23T04:40:35.762Z,33.93
2023-02-23T04:43:06.296Z,33.73
2023-02-23T04:45:36.920Z,34.10
2023-02-23T04:48:10.362Z,32.23
2023-02-23T04:50:43.070Z,34.07
2023-02-23T04:53:13.265Z,34.27
2023-02-23T04:55:43.461Z,34.60
2023-02-23T04:58:15.639Z,34.93
2023-02-23T05:00:47.626Z,33.43
2023-02-23T05:03:20.584Z,34.27
2023-02-23T05:05:50.773Z,33.17
2023-02-23T05:08:21.036Z,34.43
2023-02-23T05:10:51.133Z,35.10
2023-02-23T05:13:21.238Z,34.63
2023-02-23T05:15:51.946Z,33.73
2023-02-23T05:18:27.476Z,33.30
2023-02-23T05:21:04.524Z,31.40
2023-02-23T05:23:35.242Z,32.40
2023-02-23T05:26:06.529Z,33.53
2023-02-23T05:28:38.904Z,32.53
2023-02-23T05:31:11.664Z,32.57
2023-02-23T05:33:46.036Z,32.47
2023-02-23T05:36:18.361Z,32.63
2023-02-23T05:38:49.901Z,33.97
2023-02-23T05:41:22.665Z,33.33
2023-02-23T05:43:54.843Z,33.10
2023-02-23T05:46:27.717Z,32.13
2023-02-23T05:49:03.546Z,31.23
2023-02-23T05:51:37.101Z,32.07
2023-02-23T05:54:07.879Z,31.90
2023-02-23T05:56:37.919Z,33.40
2023-02-23T05:59:08.230Z,31.20
2023-02-23T06:01:38.892Z,33.13
2023-02-23T06:04:14.374Z,31.67
2023-02-23T06:06:45.587Z,32.03
2023-02-23T06:09:16.103Z,32.03
2023-02-23T06:11:46.253Z,32.70
2023-02-23T06:14:16.635Z,31.50
2023-02-23T06:16:49.153Z,33.17
2023-02-23T06:19:22.206Z,31.77
2023-02-23T06:21:53.294Z,31.93
2023-02-23T06:24:24.213Z,31.97
2023-02-23T06:26:55.146Z,32.80
2023-02-23T06:29:25.400Z,32.10
2023-02-23T06:31:55.847Z,30.93
2023-02-23T06:34:29.170Z,32.07
2023-02-23T06:36:59.428Z,31.33
2023-02-23T06:39:29.635Z,32.23
2023-02-23T06:42:00.556Z,30.90
2023-02-23T06:44:30.779Z,32.07
2023-02-23T06:47:06.096Z,31.37
2023-02-23T06:49:40.807Z,39.30
2023-02-23T06:52:13.818Z,36.60
2023-02-23T06:54:44.742Z,36.60
2023-02-23T06:57:14.944Z,34.13
2023-02-23T06:59:45.484Z,34.10
2023-02-23T07:02:16.937Z,35.43
2023-02-23T07:04:51.090Z,34.37
2023-02-23T07:07:25.062Z,33.60
2023-02-23T07:09:55.238Z,33.60
2023-02-23T07:12:29.086Z,35.57
2023-02-23T07:14:59.254Z,34.83
2023-02-23T07:17:29.300Z,34.63
2023-02-23T07:20:02.042Z,33.77
2023-02-23T07:22:34.332Z,35.03
2023-02-23T07:25:04.852Z,34.63
2023-02-23T07:27:35.174Z,33.90
2023-02-23T07:30:06.057Z,34.03
2023-02-23T07:32:38.000Z,31.87
2023-02-23T07:35:13.768Z,31.93
2023-02-23T07:37:43.792Z,32.33
2023-02-23T07:40:15.247Z,31.23
2023-02-23T07:42:45.468Z,31.83
2023-02-23T07:45:15.685Z,31.77
2023-02-23T07:47:45.832Z,30.50
2023-02-23T07:50:18.646Z,30.33
2023-02-23T07:52:48.683Z,31.53
2023-02-23T07:55:18.671Z,33.30
2023-02-23T07:57:48.750Z,30.90
2023-02-23T08:00:19.548Z,32.30
2023-02-23T08:02:49.453Z,31.73
2023-02-23T08:05:22.799Z,30.20
2023-02-23T08:07:53.525Z,30.03
2023-02-23T08:10:23.622Z,30.33
2023-02-23T08:12:53.792Z,30.87
2023-02-23T08:15:23.735Z,31.40
2023-02-23T08:17:53.871Z,31.10
2023-02-23T08:20:27.964Z,30.77
2023-02-23T08:22:58.729Z,31.73
2023-02-23T08:25:29.338Z,30.07
2023-02-23T08:28:04.726Z,29.67
2023-02-23T08:30:38.742Z,29.43
2023-02-23T08:33:08.779Z,31.00
2023-02-23T08:35:41.468Z,30.03
2023-02-23T08:38:11.462Z,29.27
2023-02-23T08:40:41.797Z,31.63
2023-02-23T08:43:11.814Z,31.03
2023-02-23T08:45:41.932Z,28.87
2023-02-23T08:48:11.963Z,30.13
2023-02-23T08:50:44.552Z,28.23
2023-02-23T08:53:14.591Z,27.37
2023-02-23T08:55:44.609Z,26.83
2023-02-23T08:58:14.875Z,27.23
2023-02-23T09:00:44.937Z,27.93
2023-02-23T09:03:15.044Z,28.73
2023-02-23T09:05:47.884Z,25.43
2023-02-23T09:08:18.839Z,26.07
2023-02-23T09:10:48.775Z,24.47
2023-02-23T09:13:18.840Z,24.80
2023-02-23T09:15:49.084Z,24.17
2023-02-23T09:18:19.206Z,24.23
2023-02-23T09:20:52.035Z,24.33
2023-02-23T09:23:22.220Z,24.60
2023-02-23T09:25:52.150Z,23.20
2023-02-23T09:28:24.305Z,25.07
2023-02-23T09:30:54.376Z,26.40
2023-02-23T09:33:24.559Z,26.03
2023-02-23T09:35:57.227Z,26.07
2023-02-23T09:38:27.436Z,24.80
2023-02-23T09:40:57.926Z,24.93
2023-02-23T09:43:35.173Z,22.20
2023-02-23T09:46:17.152Z,22.70
2023-02-23T09:48:47.237Z,20.63
2023-02-23T09:51:24.694Z,21.60
2023-02-23T09:53:58.276Z,20.40
2023-02-23T09:56:36.074Z,23.13
2023-02-23T09:59:10.013Z,21.73
2023-02-23T10:02:08.507Z,20.83
2023-02-23T10:04:43.821Z,21.17
2023-02-23T10:07:23.822Z,19.47
2023-02-23T10:10:13.581Z,18.63
2023-02-23T10:12:53.462Z,19.13
2023-02-23T10:15:32.002Z,18.33
2023-02-23T10:18:17.893Z,18.13
2023-02-23T10:20:53.866Z,18.37
2023-02-23T10:23:32.012Z,17.87
2023-02-23T10:26:05.343Z,18.70
2023-02-23T10:28:39.198Z,20.87
2023-02-23T10:31:26.355Z,18.87
2023-02-23T10:33:58.852Z,19.67
2023-02-23T10:36:40.596Z,20.53
2023-02-23T10:39:16.337Z,20.53
2023-02-23T10:41:47.261Z,21.53
2023-02-23T10:44:22.998Z,20.70
2023-02-23T10:46:57.396Z,21.83
2023-02-23T10:49:32.801Z,22.43
2023-02-23T10:52:03.224Z,21.73
2023-02-23T10:54:47.900Z,22.63
2023-02-23T10:57:28.099Z,23.43
2023-02-23T11:00:32.927Z,23.93
2023-02-23T11:03:06.327Z,23.60
2023-02-23T11:05:47.354Z,22.33
2023-02-23T11:08:30.382Z,22.23
2023-02-23T11:11:09.286Z,21.87
2023-02-23T11:13:42.634Z,22.00
2023-02-23T11:16:16.048Z,19.87
2023-02-23T11:18:54.936Z,18.73
2023-02-23T11:21:29.772Z,17.20
2023-02-23T11:24:02.389Z,18.73
2023-02-23T11:26:41.344Z,17.20
2023-02-23T11:29:24.236Z,17.93
2023-02-23T11:31:57.023Z,20.80
2023-02-23T11:34:32.891Z,19.27
2023-02-23T11:37:07.088Z,18.97
2023-02-23T11:39:38.799Z,19.50
2023-02-23T11:42:19.887Z,16.57
2023-02-23T11:45:06.218Z,17.77
2023-02-23T11:47:41.447Z,16.10
2023-02-23T11:50:24.046Z,17.03
2023-02-23T11:53:01.126Z,17.30
2023-02-23T11:55:33.213Z,14.93
2023-02-23T11:58:28.652Z,15.97
2023-02-23T12:01:00.006Z,16.70
2023-02-23T12:03:33.029Z,14.90
2023-02-23T12:06:03.109Z,14.67
2023-02-23T12:08:42.509Z,13.90
2023-02-23T12:11:18.420Z,15.73
2023-02-23T12:13:57.027Z,15.53
2023-02-23T12:16:31.320Z,15.70
2023-02-23T12:19:06.298Z,17.10
2023-02-23T12:21:39.009Z,15.10
2023-02-23T12:24:27.609Z,14.30
2023-02-23T12:27:02.259Z,13.40
2023-02-23T12:29:44.864Z,14.03
2023-02-23T12:32:17.652Z,13.47
2023-02-23T12:34:55.013Z,12.87
2023-02-23T12:37:37.544Z,13.13
2023-02-23T12:40:19.601Z,13.23
2023-02-23T12:42:59.710Z,12.97
2023-02-23T12:45:41.545Z,15.30
2023-02-23T12:48:21.624Z,14.87
2023-02-23T12:50:55.650Z,14.47
2023-02-23T12:53:32.218Z,16.27
2023-02-23T12:56:15.981Z,13.90
2023-02-23T12:58:54.516Z,12.37
2023-02-23T13:01:31.068Z,11.30
2023-02-23T13:04:22.641Z,11.33
2023-02-23T13:07:03.747Z,11.77
2023-02-23T13:09:46.663Z,11.83
2023-02-23T13:12:39.416Z,12.00
2023-02-23T13:15:22.452Z,10.90
2023-02-23T13:18:01.721Z,10.90
2023-02-23T13:20:39.096Z,11.20
2023-02-23T13:23:17.308Z,9.97
2023-02-23T13:25:55.835Z,10.50
2023-02-23T13:28:39.598Z,11.53
2023-02-23T13:31:28.535Z,12.77
2023-02-23T13:34:04.421Z,10.50
2023-02-23T13:36:37.130Z,11.43
2023-02-23T13:39:27.317Z,12.80
2023-02-23T13:42:10.748Z,12.30
2023-02-23T13:44:47.457Z,11.33
2023-02-23T13:47:34.931Z,12.20
2023-02-23T13:50:16.569Z,11.93
2023-02-23T13:52:49.447Z,11.97
2023-02-23T13:55:54.374Z,12.67
2023-02-23T13:58:31.909Z,13.20
2023-02-23T14:01:19.151Z,12.40
2023-02-23T14:03:56.988Z,12.67
2023-02-23T14:06:32.661Z,12.20
2023-02-23T14:09:10.454Z,12.53
2023-02-23T14:11:52.238Z,12.27
2023-02-23T14:14:47.400Z,12.03
2023-02-23T14:17:41.627Z,12.73
2023-02-23T14:20:45.895Z,13.10
2023-02-23T14:23:51.469Z,14.83
2023-02-23T14:26:43.934Z,13.40
2023-02-23T14:29:35.010Z,14.33
2023-02-23T14:32:27.450Z,13.10
2023-02-23T14:34:59.992Z,13.83
2023-02-23T14:37:34.104Z,13.83
2023-02-23T14:40:14.734Z,14.43
2023-02-23T14:42:49.098Z,14.30
2023-02-23T14:45:25.785Z,14.80
2023-02-23T14:48:00.069Z,16.20
2023-02-23T14:50:32.617Z,15.07
2023-02-23T14:53:04.547Z,14.47
2023-02-23T14:55:38.279Z,15.60
2023-02-23T14:58:25.848Z,15.53
2023-02-23T15:00:55.818Z,15.10
2023-02-23T15:03:25.964Z,15.17
2023-02-23T15:05:59.810Z,14.23
2023-02-23T15:08:32.934Z,14.70
2023-02-23T15:11:09.820Z,14.23
2023-02-23T15:13:44.035Z,14.77
2023-02-23T15:16:19.225Z,14.00
2023-02-23T15:18:49.277Z,15.63
2023-02-23T15:21:22.864Z,15.07
2023-02-23T15:23:55.044Z,14.33
2023-02-23T15:26:33.093Z,15.53
2023-02-23T15:29:09.841Z,15.50
2023-02-23T15:31:41.324Z,15.93
2023-02-23T15:34:13.281Z,15.93
2023-02-23T15:36:44.459Z,15.03
2023-02-23T15:39:20.377Z,14.40
2023-02-23T15:41:53.659Z,12.30
2023-02-23T15:44:32.247Z,12.87
2023-02-23T15:47:13.678Z,13.17
2023-02-23T15:49:44.117Z,12.33
2023-02-23T15:52:19.996Z,11.80
2023-02-23T15:54:57.017Z,12.77
2023-02-23T15:57:33.509Z,12.60
2023-02-23T16:00:12.093Z,11.53
2023-02-23T16:02:44.033Z,12.87
2023-02-23T16:05:24.013Z,11.97
2023-02-23T16:08:06.330Z,12.57
2023-02-23T16:10:48.193Z,12.43
2023-02-23T16:13:24.883Z,11.87
2023-02-23T16:15:58.221Z,13.40
2023-02-23T16:18:41.549Z,12.43
2023-02-23T16:21:17.281Z,11.33
2023-02-23T16:23:50.902Z,11.77
2023-02-23T16:26:24.304Z,9.60
2023-02-23T16:29:00.924Z,9.40
2023-02-23T16:31:44.942Z,10.30
2023-02-23T16:34:24.086Z,10.50
2023-02-23T16:36:58.143Z,9.37
2023-02-23T16:39:30.047Z,10.73
2023-02-23T16:42:01.579Z,8.80
2023-02-23T16:44:42.859Z,10.10
2023-02-23T16:47:29.389Z,9.13
2023-02-23T16:50:00.785Z,9.70
2023-02-23T16:52:32.815Z,8.43
2023-02-23T16:55:04.983Z,8.60
2023-02-23T16:57:42.138Z,8.70
2023-02-23T17:00:20.700Z,7.67
2023-02-23T17:02:50.975Z,7.80
2023-02-23T17:05:24.273Z,7.93
2023-02-23T17:07:54.841Z,7.63
2023-02-23T17:10:29.713Z,8.10
2023-02-23T17:13:04.467Z,8.23
2023-02-23T17:15:39.698Z,7.83
2023-02-23T17:18:09.595Z,7.63
2023-02-23T17:20:39.531Z,6.90
2023-02-23T17:23:09.690Z,6.90
2023-02-23T17:25:42.718Z,7.17
2023-02-23T17:28:12.598Z,6.57
2023-02-23T17:30:45.486Z,7.07
2023-02-23T17:33:16.014Z,7.60
2023-02-23T17:35:47.032Z,8.50
2023-02-23T17:38:21.614Z,7.93
2023-02-23T17:40:51.745Z,7.83
2023-02-23T17:43:24.052Z,7.20
2023-02-23T17:45:57.605Z,7.47
2023-02-23T17:48:28.589Z,7.57
2023-02-23T17:51:01.391Z,7.50
2023-02-23T17:53:31.712Z,7.77
2023-02-23T17:56:02.047Z,9.00
2023-02-23T17:58:31.982Z,8.53
2023-02-23T18:01:07.099Z,8.43
2023-02-23T18:03:39.120Z,9.53
2023-02-23T18:06:11.284Z,8.90
2023-02-23T18:08:42.658Z,7.97
2023-02-23T18:11:13.475Z,7.83
2023-02-23T18:13:43.338Z,8.77
2023-02-23T18:16:16.293Z,9.13
2023-02-23T18:18:48.666Z,9.07
2023-02-23T18:21:21.406Z,8.63
2023-02-23T18:23:52.211Z,8.47
2023-02-23T18:26:24.960Z,9.10
2023-02-23T18:28:57.178Z,8.90
2023-02-23T18:31:30.953Z,8.77
2023-02-23T18:34:02.235Z,8.10
2023-02-23T18:36:35.638Z,8.00
2023-02-23T18:39:08.918Z,9.60
2023-02-23T18:41:39.212Z,10.20
2023-02-23T18:44:11.351Z,8.50
2023-02-23T18:46:44.536Z,9.03
2023-02-23T18:49:16.941Z,8.23
2023-02-23T18:51:46.971Z,8.13
2023-02-23T18:54:19.030Z,8.70
2023-02-23T18:56:50.960Z,8.97
2023-02-23T18:59:20.932Z,10.07
2023-02-23T19:01:53.596Z,9.83
2023-02-23T19:04:23.526Z,7.63
2023-02-23T19:06:53.529Z,8.47
2023-02-23T19:09:23.722Z,9.73
2023-02-23T19:11:53.757Z,9.10
2023-02-23T19:14:40.834Z,8.87
2023-02-23T19:17:16.269Z,7.87
2023-02-23T19:19:46.460Z,9.90
2023-02-23T19:22:16.455Z,8.83
2023-02-23T19:24:48.458Z,9.70
2023-02-23T19:27:18.771Z,9.47
2023-02-23T19:29:48.786Z,9.77
2023-02-23T19:32:21.453Z,9.97
2023-02-23T19:34:51.565Z,9.87
2023-02-23T19:37:21.614Z,9.17
2023-02-23T19:39:51.658Z,9.53
2023-02-23T19:42:21.966Z,9.10
2023-02-23T19:44:51.961Z,9.47
2023-02-23T19:47:24.530Z,8.33
2023-02-23T19:49:55.255Z,9.87
2023-02-23T19:52:28.942Z,10.07
2023-02-23T19:54:58.859Z,10.03
2023-02-23T19:57:28.733Z,9.83
2023-02-23T19:59:58.729Z,10.43
2023-02-23T20:02:31.422Z,10.10
2023-02-23T20:05:01.919Z,9.50
2023-02-23T20:07:31.823Z,9.40
2023-02-23T20:10:05.816Z,9.87
2023-02-23T20:12:36.111Z,9.67
2023-02-23T20:15:07.204Z,11.37
2023-02-23T20:17:40.260Z,11.00
2023-02-23T20:20:12.645Z,11.00
2023-02-23T20:22:45.053Z,11.30
2023-02-23T20:25:18.087Z,10.43
2023-02-23T20:27:49.089Z,10.27
2023-02-23T20:30:20.700Z,7.23
2023-02-23T20:32:53.532Z,5.80
2023-02-23T20:35:26.631Z,5.00
2023-02-23T20:37:56.849Z,3.73
2023-02-23T20:40:27.612Z,4.50
2023-02-23T20:42:57.940Z,5.07
2023-02-23T20:45:28.736Z,4.13
2023-02-23T20:48:03.408Z,4.83
2023-02-23T20:50:34.144Z,4.30
2023-02-23T20:53:04.564Z,4.70
2023-02-23T20:55:35.918Z,4.10
2023-02-23T20:58:05.957Z,4.93
2023-02-23T21:00:36.145Z,5.00
2023-02-23T21:03:09.154Z,6.07
2023-02-23T21:05:43.580Z,6.23
2023-02-23T21:08:14.083Z,6.57
2023-02-23T21:10:44.617Z,5.17
2023-02-23T21:13:14.613Z,5.00
2023-02-23T21:15:46.028Z,4.70
2023-02-23T21:18:18.805Z,5.40
2023-02-23T21:20:48.771Z,5.13
2023-02-23T21:23:20.653Z,5.53
2023-02-23T21:25:53.257Z,4.67
2023-02-23T21:28:23.202Z,4.93
2023-02-23T21:30:53.263Z,4.63
2023-02-23T21:33:25.981Z,4.57
2023-02-23T21:35:58.999Z,5.07
2023-02-23T21:38:29.180Z,5.00
2023-02-23T21:40:59.202Z,4.03
2023-02-23T21:43:29.504Z,4.00
2023-02-23T21:45:59.459Z,3.77
2023-02-23T21:48:35.998Z,4.43
2023-02-23T21:51:07.390Z,3.53
2023-02-23T21:53:37.929Z,3.43
2023-02-23T21:56:12.005Z,3.90
2023-02-23T21:58:43.097Z,4.70
2023-02-23T22:01:15.046Z,4.13
2023-02-23T22:03:47.747Z,4.40
2023-02-23T22:06:19.345Z,3.73
2023-02-23T22:08:50.436Z,3.03
2023-02-23T22:11:24.968Z,4.03
2023-02-23T22:13:59.492Z,3.37
2023-02-23T22:16:31.468Z,3.07
2023-02-23T22:19:04.719Z,3.80
2023-02-23T22:21:36.917Z,4.03
2023-02-23T22:24:07.813Z,3.90
2023-02-23T22:26:39.933Z,3.83
2023-02-23T22:29:12.245Z,3.43
2023-02-23T22:31:42.801Z,4.10
2023-02-23T22:34:15.593Z,4.57
2023-02-23T22:36:46.703Z,4.60
2023-02-23T22:39:18.956Z,4.33
2023-02-23T22:41:49.876Z,4.43
2023-02-23T22:44:21.585Z,4.67
2023-02-23T22:46:53.346Z,4.13
2023-02-23T22:49:27.263Z,4.57
2023-02-23T22:51:57.217Z,4.60
2023-02-23T22:54:27.162Z,4.20
2023-02-23T22:56:57.336Z,3.80
2023-02-23T22:59:28.996Z,3.23
2023-02-23T23:02:00.526Z,4.20
2023-02-23T23:04:34.647Z,4.20
2023-02-23T23:07:06.476Z,4.83
2023-02-23T23:09:39.748Z,3.90
2023-02-23T23:12:12.051Z,3.63
2023-02-23T23:14:42.387Z,3.30
2023-02-23T23:17:14.065Z,3.37
2023-02-23T23:19:47.165Z,3.90
2023-02-23T23:22:17.653Z,2.93
2023-02-23T23:24:49.205Z,3.57
2023-02-23T23:27:20.132Z,3.73
2023-02-23T23:29:50.890Z,3.40
2023-02-23T23:32:27.987Z,3.13
2023-02-23T23:35:01.687Z,3.70
2023-02-23T23:37:31.880Z,3.80
2023-02-23T23:40:05.601Z,3.47
2023-02-23T23:42:35.542Z,3.20
2023-02-23T23:45:09.756Z,3.53
2023-02-23T23:47:39.749Z,3.13
2023-02-23T23:50:13.889Z,3.40
2023-02-23T23:52:45.200Z,3.63
2023-02-23T23:55:18.290Z,3.20
2023-02-23T23:57:48.316Z,3.87
